Time,TemperatureF,DewpointF,PressureIn,WindDirection,WindDirectionDegrees,WindSpeedMPH,WindSpeedGustMPH,Humidity,HourlyPrecipIn,Conditions,Clouds,dailyrainin,SolarRadiationWatts/m^2,SoftwareType,DateUTC
2013-03-13 01:15:00,58.0,45.9,29.72,NW,313,4.0,4.0,64,0.00,,,0.00,0,Wunderground v.1.15,2013-03-12 23:15:00,
2013-03-13 01:50:00,57.7,46.0,29.73,NW,318,3.0,3.0,65,0.00,,,0.00,0,Wunderground v.1.15,2013-03-12 23:50:00,
2013-03-13 02:05:00,57.6,46.3,29.73,North,355,5.0,5.0,66,0.00,,,0.00,0,Wunderground v.1.15,2013-03-13 00:05:00,
2013-03-13 02:30:00,57.2,45.9,29.73,NNW,327,5.0,5.0,66,0.00,,,0.00,0,Wunderground v.1.15,2013-03-13 00:30:00,
2013-03-13 02:35:00,57.1,45.8,29.73,NW,309,4.0,5.0,66,0.00,,,0.00,0,Wunderground v.1.15,2013-03-13 00:35:00,
2013-03-13 02:45:00,57.0,45.7,29.73,NW,314,2.0,2.0,66,0.00,,,0.00,0,Wunderground v.1.15,2013-03-13 00:45:00,
2013-03-13 03:10:00,56.7,45.5,29.72,NW,319,2.0,2.0,66,0.00,,,0.00,0,Wunderground v.1.15,2013-03-13 01:10:00,
2013-03-13 03:30:00,56.6,45.4,29.72,NW,319,0.0,0.0,66,0.00,,,0.00,0,Wunderground v.1.15,2013-03-13 01:30:00,
2013-03-13 03:40:00,56.4,45.2,29.72,NW,319,0.0,0.0,66,0.00,,,0.00,0,Wunderground v.1.15,2013-03-13 01:40:00,
2013-03-13 04:05:00,56.2,45.0,29.71,NW,319,0.0,0.0,66,0.00,,,0.00,0,Wunderground v.1.15,2013-03-13 02:05:00,
2013-03-13 04:20:00,56.4,45.6,29.71,NW,319,0.0,0.0,67,0.00,,,0.00,0,Wunderground v.1.15,2013-03-13 02:20:00,
2013-03-13 04:30:00,56.1,45.3,29.72,NW,319,0.0,0.0,67,0.00,,,0.00,0,Wunderground v.1.15,2013-03-13 02:30:00,
2013-03-13 04:45:00,55.9,45.5,29.72,NW,319,0.0,0.0,68,0.00,,,0.00,0,Wunderground v.1.15,2013-03-13 02:45:00,
2013-03-13 04:55:00,55.9,45.5,29.72,NW,319,0.0,2.0,68,0.00,,,0.00,0,Wunderground v.1.15,2013-03-13 02:55:00,
2013-03-13 05:25:00,55.6,45.6,29.72,NW,319,0.0,0.0,69,0.00,,,0.00,0,Wunderground v.1.15,2013-03-13 03:25:00,
2013-03-13 06:15:00,54.8,45.6,29.72,NW,319,0.0,0.0,71,0.00,,,0.00,0,Wunderground v.1.15,2013-03-13 04:15:00,
2013-03-13 06:40:00,54.5,45.7,29.72,NW,319,1.0,1.0,72,0.00,,,0.00,0,Wunderground v.1.15,2013-03-13 04:40:00,
2013-03-13 06:55:00,54.6,45.8,29.72,NW,319,1.0,1.0,72,0.00,,,0.00,14,Wunderground v.1.15,2013-03-13 04:55:00,
2013-03-13 07:35:00,56.4,46.4,29.73,NW,319,1.0,1.0,69,0.00,,,0.00,120,Wunderground v.1.15,2013-03-13 05:35:00,
2013-03-13 07:45:00,57.2,46.7,29.72,NW,319,1.0,1.0,68,0.00,,,0.00,142,Wunderground v.1.15,2013-03-13 05:45:00,
2013-03-13 08:00:00,57.9,46.6,29.73,NW,310,2.0,2.0,66,0.00,,,0.00,185,Wunderground v.1.15,2013-03-13 06:00:00,
2013-03-13 08:15:00,58.0,47.5,29.73,West,273,4.0,4.0,68,0.00,,,0.00,230,Wunderground v.1.15,2013-03-13 06:15:00,
2013-03-13 08:40:00,59.6,47.8,29.73,WSW,257,2.0,2.0,65,0.00,,,0.00,315,Wunderground v.1.15,2013-03-13 06:40:00,
2013-03-13 09:10:00,60.3,47.6,29.74,SSW,207,5.0,5.0,63,0.00,,,0.00,408,Wunderground v.1.15,2013-03-13 07:10:00,
2013-03-13 09:20:00,61.0,47.9,29.74,SSW,209,4.0,8.0,62,0.00,,,0.00,455,Wunderground v.1.15,2013-03-13 07:20:00,
2013-03-13 10:20:00,61.5,47.9,29.74,SSW,212,6.0,8.0,61,0.00,,,0.00,624,Wunderground v.1.15,2013-03-13 08:20:00,
2013-03-13 10:30:00,61.3,49.4,29.74,SSW,196,8.0,9.0,65,0.00,,,0.00,777,Wunderground v.1.15,2013-03-13 08:30:00,
2013-03-13 10:40:00,61.5,49.2,29.74,SSW,209,7.0,7.0,64,0.00,,,0.00,615,Wunderground v.1.15,2013-03-13 08:40:00,
2013-03-13 10:55:00,61.3,49.4,29.74,South,188,8.0,8.0,65,0.00,,,0.00,664,Wunderground v.1.15,2013-03-13 08:55:00,
2013-03-13 11:55:00,63.0,50.2,29.74,South,178,8.0,12.0,63,0.00,,,0.00,728,Wunderground v.1.15,2013-03-13 09:55:00,
2013-03-13 12:25:00,62.6,51.5,29.73,SSE,158,10.0,10.0,67,0.00,,,0.00,381,Wunderground v.1.15,2013-03-13 10:25:00,
2013-03-13 12:35:00,63.2,51.2,29.73,SW,215,6.0,13.0,65,0.00,,,0.00,798,Wunderground v.1.15,2013-03-13 10:35:00,
2013-03-13 12:45:00,63.2,51.6,29.73,SW,230,9.0,9.0,66,0.00,,,0.00,784,Wunderground v.1.15,2013-03-13 10:45:00,
2013-03-13 12:50:00,63.5,51.9,29.73,SW,214,8.0,9.0,66,0.00,,,0.00,768,Wunderground v.1.15,2013-03-13 10:50:00,
2013-03-13 13:00:00,63.9,52.3,29.72,South,178,6.0,9.0,66,0.00,,,0.00,765,Wunderground v.1.15,2013-03-13 11:00:00,
2013-03-13 13:10:00,63.5,53.5,29.72,SSW,199,7.0,7.0,70,0.00,,,0.00,759,Wunderground v.1.15,2013-03-13 11:10:00,
2013-03-13 13:55:00,64.3,55.1,29.70,South,189,5.0,5.0,72,0.00,,,0.00,752,Wunderground v.1.15,2013-03-13 11:55:00,
2013-03-13 14:05:00,63.9,54.7,29.69,West,273,8.0,9.0,72,0.00,,,0.00,715,Wunderground v.1.15,2013-03-13 12:05:00,
2013-03-13 14:20:00,64.1,54.5,29.69,SW,217,8.0,11.0,71,0.00,,,0.00,707,Wunderground v.1.15,2013-03-13 12:20:00,
2013-03-13 14:45:00,62.4,55.1,29.69,South,180,9.0,9.0,77,0.00,,,0.00,264,Wunderground v.1.15,2013-03-13 12:45:00,
2013-03-13 15:00:00,62.2,55.3,29.69,SSE,163,6.0,6.0,78,0.00,,,0.00,172,Wunderground v.1.15,2013-03-13 13:00:00,
2013-03-13 15:10:00,62.1,55.2,29.69,South,169,8.0,12.0,78,0.00,,,0.00,241,Wunderground v.1.15,2013-03-13 13:10:00,
2013-03-13 16:05:00,62.7,53.9,29.69,SSW,211,4.0,12.0,73,0.00,,,0.00,26,Wunderground v.1.15,2013-03-13 14:05:00,
2013-03-13 16:25:00,62.9,53.4,29.69,SSW,200,6.0,6.0,71,0.00,,,0.00,63,Wunderground v.1.15,2013-03-13 14:25:00,
2013-03-13 16:35:00,63.0,54.2,29.69,SSW,209,4.0,4.0,73,0.00,,,0.00,86,Wunderground v.1.15,2013-03-13 14:35:00,
2013-03-13 16:45:00,63.0,54.6,29.69,SSW,209,4.0,4.0,74,0.00,,,0.00,95,Wunderground v.1.15,2013-03-13 14:45:00,
2013-03-13 17:15:00,61.7,55.5,29.69,SSW,201,3.0,7.0,80,0.00,,,0.00,49,Wunderground v.1.15,2013-03-13 15:15:00,
2013-03-13 18:00:00,61.8,55.2,29.70,SW,225,4.0,5.0,79,0.00,,,0.00,14,Wunderground v.1.15,2013-03-13 16:00:00,
2013-03-13 18:35:00,63.1,50.7,29.71,West,272,1.0,3.0,64,0.00,,,0.00,0,Wunderground v.1.15,2013-03-13 16:35:00,
2013-03-13 19:45:00,61.4,49.1,29.71,West,264,0.0,1.0,64,0.00,,,0.00,0,Wunderground v.1.15,2013-03-13 17:45:00,
2013-03-13 19:55:00,61.3,49.0,29.72,West,264,1.0,1.0,64,0.00,,,0.00,0,Wunderground v.1.15,2013-03-13 17:55:00,
2013-03-13 20:10:00,61.5,48.8,29.72,West,264,1.0,3.0,63,0.00,,,0.00,0,Wunderground v.1.15,2013-03-13 18:10:00,
2013-03-13 20:35:00,61.5,49.2,29.72,SW,219,5.0,5.0,64,0.00,,,0.00,0,Wunderground v.1.15,2013-03-13 18:35:00,
2013-03-13 20:55:00,61.5,50.8,29.72,SSW,198,6.0,6.0,68,0.00,,,0.00,0,Wunderground v.1.15,2013-03-13 18:55:00,